sensor_id;sensor_type;location;lat;lon;timestamp;P1;durP1;ratioP1;P2;durP2;ratioP2
15126;SDS011;7664;52.008;4.748;2023-11-21T00:00:38;6.82;;;3.72;;
15126;SDS011;7664;52.008;4.748;2023-11-21T00:03:06;6.90;;;4.55;;
15126;SDS011;7664;52.008;4.748;2023-11-21T00:05:34;8.00;;;4.53;;
15126;SDS011;7664;52.008;4.748;2023-11-21T00:08:04;8.80;;;4.97;;
15126;SDS011;7664;52.008;4.748;2023-11-21T00:10:32;8.32;;;5.28;;
15126;SDS011;7664;52.008;4.748;2023-11-21T00:13:02;10.90;;;5.63;;
15126;SDS011;7664;52.008;4.748;2023-11-21T00:15:30;9.10;;;5.32;;
15126;SDS011;7664;52.008;4.748;2023-11-21T00:17:58;9.77;;;5.68;;
15126;SDS011;7664;52.008;4.748;2023-11-21T00:20:27;10.52;;;5.40;;
15126;SDS011;7664;52.008;4.748;2023-11-21T00:22:55;7.78;;;5.10;;
15126;SDS011;7664;52.008;4.748;2023-11-21T00:25:23;8.15;;;5.10;;
15126;SDS011;7664;52.008;4.748;2023-11-21T00:27:51;7.15;;;5.07;;
15126;SDS011;7664;52.008;4.748;2023-11-21T00:30:21;9.00;;;4.78;;
15126;SDS011;7664;52.008;4.748;2023-11-21T00:32:48;7.05;;;4.88;;
15126;SDS011;7664;52.008;4.748;2023-11-21T00:35:16;7.45;;;4.47;;
15126;SDS011;7664;52.008;4.748;2023-11-21T00:37:44;6.30;;;4.13;;
15126;SDS011;7664;52.008;4.748;2023-11-21T00:40:13;6.10;;;3.47;;
15126;SDS011;7664;52.008;4.748;2023-11-21T00:42:41;5.25;;;3.88;;
15126;SDS011;7664;52.008;4.748;2023-11-21T00:45:10;5.75;;;4.18;;
15126;SDS011;7664;52.008;4.748;2023-11-21T00:47:39;6.40;;;3.78;;
15126;SDS011;7664;52.008;4.748;2023-11-21T00:50:09;7.60;;;5.28;;
15126;SDS011;7664;52.008;4.748;2023-11-21T00:52:37;9.25;;;5.38;;
15126;SDS011;7664;52.008;4.748;2023-11-21T00:55:06;8.02;;;5.13;;
15126;SDS011;7664;52.008;4.748;2023-11-21T00:57:35;8.95;;;5.18;;
15126;SDS011;7664;52.008;4.748;2023-11-21T01:00:04;8.65;;;5.38;;
15126;SDS011;7664;52.008;4.748;2023-11-21T01:02:37;8.57;;;4.80;;
15126;SDS011;7664;52.008;4.748;2023-11-21T01:05:07;8.05;;;4.63;;
15126;SDS011;7664;52.008;4.748;2023-11-21T01:07:35;10.30;;;6.68;;
15126;SDS011;7664;52.008;4.748;2023-11-21T01:10:04;10.77;;;5.72;;
15126;SDS011;7664;52.008;4.748;2023-11-21T01:12:34;10.13;;;5.88;;
15126;SDS011;7664;52.008;4.748;2023-11-21T01:15:02;8.20;;;5.60;;
15126;SDS011;7664;52.008;4.748;2023-11-21T01:17:33;8.18;;;5.57;;
15126;SDS011;7664;52.008;4.748;2023-11-21T01:20:02;11.05;;;5.82;;
15126;SDS011;7664;52.008;4.748;2023-11-21T01:22:34;10.05;;;6.22;;
15126;SDS011;7664;52.008;4.748;2023-11-21T01:25:02;10.85;;;5.22;;
15126;SDS011;7664;52.008;4.748;2023-11-21T01:27:33;12.10;;;6.45;;
15126;SDS011;7664;52.008;4.748;2023-11-21T01:30:01;7.90;;;5.30;;
15126;SDS011;7664;52.008;4.748;2023-11-21T01:32:30;12.57;;;6.07;;
15126;SDS011;7664;52.008;4.748;2023-11-21T01:34:59;12.60;;;5.90;;
15126;SDS011;7664;52.008;4.748;2023-11-21T01:37:27;11.02;;;6.07;;
15126;SDS011;7664;52.008;4.748;2023-11-21T01:39:58;11.60;;;6.10;;
15126;SDS011;7664;52.008;4.748;2023-11-21T01:42:27;10.10;;;5.90;;
15126;SDS011;7664;52.008;4.748;2023-11-21T01:44:56;11.25;;;5.90;;
15126;SDS011;7664;52.008;4.748;2023-11-21T01:47:25;9.57;;;6.00;;
15126;SDS011;7664;52.008;4.748;2023-11-21T01:49:53;9.20;;;5.15;;
15126;SDS011;7664;52.008;4.748;2023-11-21T01:52:22;12.77;;;6.93;;
15126;SDS011;7664;52.008;4.748;2023-11-21T01:54:51;10.43;;;5.63;;
15126;SDS011;7664;52.008;4.748;2023-11-21T01:57:21;10.30;;;4.85;;
15126;SDS011;7664;52.008;4.748;2023-11-21T01:59:49;10.32;;;6.15;;
15126;SDS011;7664;52.008;4.748;2023-11-21T02:02:18;12.63;;;5.75;;
15126;SDS011;7664;52.008;4.748;2023-11-21T02:04:46;13.30;;;5.30;;
15126;SDS011;7664;52.008;4.748;2023-11-21T02:07:14;11.32;;;4.93;;
15126;SDS011;7664;52.008;4.748;2023-11-21T02:09:42;10.07;;;5.60;;
15126;SDS011;7664;52.008;4.748;2023-11-21T02:12:11;13.85;;;6.03;;
15126;SDS011;7664;52.008;4.748;2023-11-21T02:14:41;11.25;;;5.50;;
15126;SDS011;7664;52.008;4.748;2023-11-21T02:17:09;9.98;;;5.10;;
15126;SDS011;7664;52.008;4.748;2023-11-21T02:19:39;8.40;;;5.10;;
15126;SDS011;7664;52.008;4.748;2023-11-21T02:22:07;9.30;;;5.10;;
15126;SDS011;7664;52.008;4.748;2023-11-21T02:24:40;10.98;;;5.70;;
15126;SDS011;7664;52.008;4.748;2023-11-21T02:27:10;9.82;;;6.10;;
15126;SDS011;7664;52.008;4.748;2023-11-21T02:29:39;8.93;;;4.90;;
15126;SDS011;7664;52.008;4.748;2023-11-21T02:32:07;9.13;;;5.50;;
15126;SDS011;7664;52.008;4.748;2023-11-21T02:34:37;9.20;;;5.50;;
15126;SDS011;7664;52.008;4.748;2023-11-21T02:37:06;11.38;;;5.93;;
15126;SDS011;7664;52.008;4.748;2023-11-21T02:39:33;9.82;;;5.18;;
15126;SDS011;7664;52.008;4.748;2023-11-21T02:42:03;11.45;;;5.25;;
15126;SDS011;7664;52.008;4.748;2023-11-21T02:44:31;10.02;;;4.95;;
15126;SDS011;7664;52.008;4.748;2023-11-21T02:46:59;9.18;;;5.20;;
15126;SDS011;7664;52.008;4.748;2023-11-21T02:49:28;9.40;;;5.90;;
15126;SDS011;7664;52.008;4.748;2023-11-21T02:51:57;9.73;;;5.13;;
15126;SDS011;7664;52.008;4.748;2023-11-21T02:54:25;11.15;;;5.32;;
15126;SDS011;7664;52.008;4.748;2023-11-21T02:56:53;11.57;;;5.60;;
15126;SDS011;7664;52.008;4.748;2023-11-21T02:59:22;9.63;;;5.53;;
15126;SDS011;7664;52.008;4.748;2023-11-21T03:01:51;8.93;;;4.88;;
15126;SDS011;7664;52.008;4.748;2023-11-21T03:04:19;9.80;;;5.15;;
15126;SDS011;7664;52.008;4.748;2023-11-21T03:06:47;9.27;;;5.00;;
15126;SDS011;7664;52.008;4.748;2023-11-21T03:09:15;10.40;;;4.97;;
15126;SDS011;7664;52.008;4.748;2023-11-21T03:11:43;9.52;;;5.03;;
15126;SDS011;7664;52.008;4.748;2023-11-21T03:14:11;12.13;;;5.40;;
15126;SDS011;7664;52.008;4.748;2023-11-21T03:16:41;9.10;;;4.93;;
15126;SDS011;7664;52.008;4.748;2023-11-21T03:19:10;10.55;;;4.95;;
15126;SDS011;7664;52.008;4.748;2023-11-21T03:21:38;11.05;;;5.22;;
15126;SDS011;7664;52.008;4.748;2023-11-21T03:24:07;7.10;;;4.32;;
15126;SDS011;7664;52.008;4.748;2023-11-21T03:26:35;11.70;;;6.13;;
15126;SDS011;7664;52.008;4.748;2023-11-21T03:29:04;10.90;;;5.32;;
15126;SDS011;7664;52.008;4.748;2023-11-21T03:31:32;9.85;;;5.10;;
15126;SDS011;7664;52.008;4.748;2023-11-21T03:34:02;12.73;;;5.55;;
15126;SDS011;7664;52.008;4.748;2023-11-21T03:36:30;12.00;;;5.65;;
15126;SDS011;7664;52.008;4.748;2023-11-21T03:38:58;11.48;;;5.50;;
15126;SDS011;7664;52.008;4.748;2023-11-21T03:41:26;11.63;;;4.95;;
15126;SDS011;7664;52.008;4.748;2023-11-21T03:43:54;11.35;;;5.32;;
15126;SDS011;7664;52.008;4.748;2023-11-21T03:46:22;9.75;;;4.97;;
15126;SDS011;7664;52.008;4.748;2023-11-21T03:48:50;10.02;;;5.47;;
15126;SDS011;7664;52.008;4.748;2023-11-21T03:51:20;11.60;;;5.90;;
15126;SDS011;7664;52.008;4.748;2023-11-21T03:53:48;9.85;;;5.35;;
15126;SDS011;7664;52.008;4.748;2023-11-21T03:56:16;12.23;;;5.95;;
15126;SDS011;7664;52.008;4.748;2023-11-21T03:58:44;8.43;;;5.45;;
15126;SDS011;7664;52.008;4.748;2023-11-21T04:01:12;9.82;;;5.05;;
15126;SDS011;7664;52.008;4.748;2023-11-21T04:03:48;8.10;;;5.35;;
15126;SDS011;7664;52.008;4.748;2023-11-21T04:06:17;8.48;;;5.35;;
15126;SDS011;7664;52.008;4.748;2023-11-21T04:08:46;10.75;;;4.93;;
15126;SDS011;7664;52.008;4.748;2023-11-21T04:11:14;10.32;;;5.32;;
15126;SDS011;7664;52.008;4.748;2023-11-21T04:13:42;9.93;;;5.32;;
15126;SDS011;7664;52.008;4.748;2023-11-21T04:16:10;11.68;;;5.38;;
15126;SDS011;7664;52.008;4.748;2023-11-21T04:18:39;9.18;;;4.88;;
15126;SDS011;7664;52.008;4.748;2023-11-21T04:21:07;11.95;;;5.53;;
15126;SDS011;7664;52.008;4.748;2023-11-21T04:23:36;8.38;;;5.28;;
15126;SDS011;7664;52.008;4.748;2023-11-21T04:26:05;8.80;;;5.20;;
15126;SDS011;7664;52.008;4.748;2023-11-21T04:28:33;9.70;;;5.63;;
15126;SDS011;7664;52.008;4.748;2023-11-21T04:31:01;10.30;;;5.78;;
15126;SDS011;7664;52.008;4.748;2023-11-21T04:33:29;11.57;;;5.30;;
15126;SDS011;7664;52.008;4.748;2023-11-21T04:35:57;12.10;;;6.18;;
15126;SDS011;7664;52.008;4.748;2023-11-21T04:38:25;15.77;;;5.45;;
15126;SDS011;7664;52.008;4.748;2023-11-21T04:40:53;10.82;;;5.53;;
15126;SDS011;7664;52.008;4.748;2023-11-21T04:43:23;11.68;;;5.10;;
15126;SDS011;7664;52.008;4.748;2023-11-21T04:45:51;10.55;;;5.35;;
15126;SDS011;7664;52.008;4.748;2023-11-21T04:48:19;10.23;;;6.22;;
15126;SDS011;7664;52.008;4.748;2023-11-21T04:50:47;10.15;;;5.47;;
15126;SDS011;7664;52.008;4.748;2023-11-21T04:53:15;9.50;;;5.82;;
15126;SDS011;7664;52.008;4.748;2023-11-21T04:55:43;8.02;;;5.13;;
15126;SDS011;7664;52.008;4.748;2023-11-21T04:58:12;7.88;;;5.20;;
15126;SDS011;7664;52.008;4.748;2023-11-21T05:00:41;10.38;;;5.70;;
15126;SDS011;7664;52.008;4.748;2023-11-21T05:03:09;10.88;;;5.63;;
15126;SDS011;7664;52.008;4.748;2023-11-21T05:05:38;11.85;;;5.38;;
15126;SDS011;7664;52.008;4.748;2023-11-21T05:08:06;9.10;;;5.30;;
15126;SDS011;7664;52.008;4.748;2023-11-21T05:10:34;10.90;;;5.25;;
15126;SDS011;7664;52.008;4.748;2023-11-21T05:13:04;10.77;;;6.13;;
15126;SDS011;7664;52.008;4.748;2023-11-21T05:15:36;9.73;;;5.68;;
15126;SDS011;7664;52.008;4.748;2023-11-21T05:18:06;11.05;;;4.97;;
15126;SDS011;7664;52.008;4.748;2023-11-21T05:20:34;7.97;;;5.43;;
15126;SDS011;7664;52.008;4.748;2023-11-21T05:23:05;10.23;;;5.28;;
15126;SDS011;7664;52.008;4.748;2023-11-21T05:25:34;9.75;;;4.80;;
15126;SDS011;7664;52.008;4.748;2023-11-21T05:28:06;7.80;;;4.53;;
15126;SDS011;7664;52.008;4.748;2023-11-21T05:30:34;9.70;;;5.20;;
15126;SDS011;7664;52.008;4.748;2023-11-21T05:33:02;10.30;;;5.20;;
15126;SDS011;7664;52.008;4.748;2023-11-21T05:35:32;8.45;;;4.82;;
15126;SDS011;7664;52.008;4.748;2023-11-21T05:38:00;8.55;;;5.18;;
15126;SDS011;7664;52.008;4.748;2023-11-21T05:40:28;14.18;;;5.10;;
15126;SDS011;7664;52.008;4.748;2023-11-21T05:42:56;7.70;;;5.45;;
15126;SDS011;7664;52.008;4.748;2023-11-21T05:45:24;9.48;;;5.57;;
15126;SDS011;7664;52.008;4.748;2023-11-21T05:47:52;8.95;;;5.43;;
15126;SDS011;7664;52.008;4.748;2023-11-21T05:50:20;7.60;;;4.28;;
15126;SDS011;7664;52.008;4.748;2023-11-21T05:52:50;6.95;;;4.70;;
15126;SDS011;7664;52.008;4.748;2023-11-21T05:55:18;8.07;;;5.18;;
15126;SDS011;7664;52.008;4.748;2023-11-21T05:57:47;8.40;;;5.13;;
15126;SDS011;7664;52.008;4.748;2023-11-21T06:00:15;5.80;;;4.57;;
15126;SDS011;7664;52.008;4.748;2023-11-21T06:02:48;6.57;;;4.80;;
15126;SDS011;7664;52.008;4.748;2023-11-21T06:05:19;6.70;;;3.90;;
15126;SDS011;7664;52.008;4.748;2023-11-21T06:07:51;7.40;;;4.50;;
15126;SDS011;7664;52.008;4.748;2023-11-21T06:10:19;7.22;;;4.25;;
15126;SDS011;7664;52.008;4.748;2023-11-21T06:12:50;7.85;;;4.22;;
15126;SDS011;7664;52.008;4.748;2023-11-21T06:15:19;7.18;;;4.35;;
15126;SDS011;7664;52.008;4.748;2023-11-21T06:17:49;5.78;;;4.05;;
15126;SDS011;7664;52.008;4.748;2023-11-21T06:20:20;7.03;;;3.72;;
15126;SDS011;7664;52.008;4.748;2023-11-21T06:22:51;5.82;;;3.88;;
15126;SDS011;7664;52.008;4.748;2023-11-21T06:25:19;6.60;;;3.83;;
15126;SDS011;7664;52.008;4.748;2023-11-21T06:27:48;8.48;;;4.75;;
15126;SDS011;7664;52.008;4.748;2023-11-21T06:30:20;5.93;;;4.00;;
15126;SDS011;7664;52.008;4.748;2023-11-21T06:32:48;6.45;;;4.28;;
15126;SDS011;7664;52.008;4.748;2023-11-21T06:35:17;5.55;;;3.53;;
15126;SDS011;7664;52.008;4.748;2023-11-21T06:37:46;3.72;;;3.00;;
15126;SDS011;7664;52.008;4.748;2023-11-21T06:40:18;5.00;;;4.05;;
15126;SDS011;7664;52.008;4.748;2023-11-21T06:42:47;6.80;;;3.75;;
15126;SDS011;7664;52.008;4.748;2023-11-21T06:45:17;6.18;;;3.40;;
15126;SDS011;7664;52.008;4.748;2023-11-21T06:47:46;6.53;;;3.92;;
15126;SDS011;7664;52.008;4.748;2023-11-21T06:50:14;5.82;;;3.22;;
15126;SDS011;7664;52.008;4.748;2023-11-21T06:52:42;6.78;;;3.33;;
15126;SDS011;7664;52.008;4.748;2023-11-21T06:55:10;5.07;;;3.28;;
15126;SDS011;7664;52.008;4.748;2023-11-21T06:57:41;4.05;;;2.60;;
15126;SDS011;7664;52.008;4.748;2023-11-21T07:00:10;10.02;;;3.80;;
15126;SDS011;7664;52.008;4.748;2023-11-21T07:02:38;4.75;;;3.03;;
15126;SDS011;7664;52.008;4.748;2023-11-21T07:05:07;8.48;;;3.78;;
15126;SDS011;7664;52.008;4.748;2023-11-21T07:07:35;8.65;;;3.30;;
15126;SDS011;7664;52.008;4.748;2023-11-21T07:10:05;4.28;;;3.22;;
15126;SDS011;7664;52.008;4.748;2023-11-21T07:12:33;7.57;;;4.30;;
15126;SDS011;7664;52.008;4.748;2023-11-21T07:15:03;6.05;;;2.88;;
15126;SDS011;7664;52.008;4.748;2023-11-21T07:17:36;8.13;;;3.25;;
15126;SDS011;7664;52.008;4.748;2023-11-21T07:20:07;5.40;;;3.05;;
15126;SDS011;7664;52.008;4.748;2023-11-21T07:22:37;5.50;;;3.47;;
15126;SDS011;7664;52.008;4.748;2023-11-21T07:25:05;6.78;;;3.53;;
15126;SDS011;7664;52.008;4.748;2023-11-21T07:27:36;7.25;;;3.75;;
15126;SDS011;7664;52.008;4.748;2023-11-21T07:30:06;5.15;;;3.40;;
15126;SDS011;7664;52.008;4.748;2023-11-21T07:32:36;7.68;;;3.67;;
15126;SDS011;7664;52.008;4.748;2023-11-21T07:35:07;5.53;;;2.88;;
15126;SDS011;7664;52.008;4.748;2023-11-21T07:37:36;7.40;;;3.35;;
15126;SDS011;7664;52.008;4.748;2023-11-21T07:40:05;5.43;;;3.58;;
15126;SDS011;7664;52.008;4.748;2023-11-21T07:42:35;5.72;;;4.05;;
15126;SDS011;7664;52.008;4.748;2023-11-21T07:45:06;5.40;;;3.47;;
15126;SDS011;7664;52.008;4.748;2023-11-21T07:47:35;8.68;;;3.63;;
15126;SDS011;7664;52.008;4.748;2023-11-21T07:50:03;7.70;;;3.35;;
15126;SDS011;7664;52.008;4.748;2023-11-21T07:52:34;5.25;;;3.72;;
15126;SDS011;7664;52.008;4.748;2023-11-21T07:55:03;4.95;;;3.50;;
15126;SDS011;7664;52.008;4.748;2023-11-21T07:57:31;7.13;;;4.07;;
15126;SDS011;7664;52.008;4.748;2023-11-21T08:00:00;8.02;;;3.78;;
15126;SDS011;7664;52.008;4.748;2023-11-21T08:02:39;5.72;;;3.60;;
15126;SDS011;7664;52.008;4.748;2023-11-21T08:05:08;7.38;;;3.53;;
15126;SDS011;7664;52.008;4.748;2023-11-21T08:07:50;11.32;;;4.75;;
15126;SDS011;7664;52.008;4.748;2023-11-21T08:10:18;7.47;;;4.07;;
15126;SDS011;7664;52.008;4.748;2023-11-21T08:12:47;7.25;;;4.70;;
15126;SDS011;7664;52.008;4.748;2023-11-21T08:15:17;6.65;;;3.78;;
15126;SDS011;7664;52.008;4.748;2023-11-21T08:17:47;9.07;;;4.80;;
15126;SDS011;7664;52.008;4.748;2023-11-21T08:20:15;6.38;;;4.13;;
15126;SDS011;7664;52.008;4.748;2023-11-21T08:22:44;16.23;;;5.95;;
15126;SDS011;7664;52.008;4.748;2023-11-21T08:25:14;10.30;;;5.18;;
15126;SDS011;7664;52.008;4.748;2023-11-21T08:27:43;7.97;;;5.10;;
15126;SDS011;7664;52.008;4.748;2023-11-21T08:30:11;7.40;;;4.90;;
15126;SDS011;7664;52.008;4.748;2023-11-21T08:32:40;10.23;;;5.55;;
15126;SDS011;7664;52.008;4.748;2023-11-21T08:35:10;8.77;;;5.20;;
15126;SDS011;7664;52.008;4.748;2023-11-21T08:37:41;14.32;;;5.85;;
15126;SDS011;7664;52.008;4.748;2023-11-21T08:40:09;9.00;;;5.90;;
15126;SDS011;7664;52.008;4.748;2023-11-21T08:42:43;11.68;;;5.63;;
15126;SDS011;7664;52.008;4.748;2023-11-21T08:45:12;10.65;;;6.22;;
15126;SDS011;7664;52.008;4.748;2023-11-21T08:47:40;6.93;;;5.68;;
15126;SDS011;7664;52.008;4.748;2023-11-21T08:50:12;11.00;;;6.50;;
15126;SDS011;7664;52.008;4.748;2023-11-21T08:52:41;8.98;;;6.30;;
15126;SDS011;7664;52.008;4.748;2023-11-21T08:55:09;10.48;;;6.50;;
15126;SDS011;7664;52.008;4.748;2023-11-21T08:57:39;11.43;;;6.93;;
15126;SDS011;7664;52.008;4.748;2023-11-21T09:00:08;12.85;;;6.15;;
15126;SDS011;7664;52.008;4.748;2023-11-21T09:02:39;15.02;;;7.65;;
15126;SDS011;7664;52.008;4.748;2023-11-21T09:05:08;12.38;;;7.28;;
15126;SDS011;7664;52.008;4.748;2023-11-21T09:07:39;13.27;;;6.13;;
15126;SDS011;7664;52.008;4.748;2023-11-21T09:10:09;10.05;;;6.72;;
15126;SDS011;7664;52.008;4.748;2023-11-21T09:12:37;13.95;;;8.05;;
15126;SDS011;7664;52.008;4.748;2023-11-21T09:15:06;13.88;;;6.70;;
15126;SDS011;7664;52.008;4.748;2023-11-21T09:17:36;9.32;;;5.60;;
15126;SDS011;7664;52.008;4.748;2023-11-21T09:20:05;8.23;;;6.20;;
15126;SDS011;7664;52.008;4.748;2023-11-21T09:22:36;10.70;;;6.65;;
15126;SDS011;7664;52.008;4.748;2023-11-21T09:25:07;8.65;;;5.78;;
15126;SDS011;7664;52.008;4.748;2023-11-21T09:27:36;9.25;;;5.32;;
15126;SDS011;7664;52.008;4.748;2023-11-21T09:30:04;8.05;;;5.82;;
15126;SDS011;7664;52.008;4.748;2023-11-21T09:32:36;7.38;;;4.43;;
15126;SDS011;7664;52.008;4.748;2023-11-21T09:35:07;8.60;;;4.38;;
15126;SDS011;7664;52.008;4.748;2023-11-21T09:37:36;10.02;;;4.65;;
15126;SDS011;7664;52.008;4.748;2023-11-21T09:40:08;4.47;;;3.20;;
15126;SDS011;7664;52.008;4.748;2023-11-21T09:42:40;5.10;;;3.63;;
15126;SDS011;7664;52.008;4.748;2023-11-21T09:45:17;4.30;;;3.38;;
15126;SDS011;7664;52.008;4.748;2023-11-21T09:47:50;4.55;;;2.70;;
15126;SDS011;7664;52.008;4.748;2023-11-21T09:50:20;5.53;;;3.55;;
15126;SDS011;7664;52.008;4.748;2023-11-21T09:52:49;6.55;;;3.90;;
15126;SDS011;7664;52.008;4.748;2023-11-21T09:55:25;4.28;;;3.28;;
15126;SDS011;7664;52.008;4.748;2023-11-21T09:57:55;5.03;;;3.30;;
15126;SDS011;7664;52.008;4.748;2023-11-21T10:00:24;5.75;;;3.13;;
15126;SDS011;7664;52.008;4.748;2023-11-21T10:02:54;5.75;;;3.30;;
15126;SDS011;7664;52.008;4.748;2023-11-21T10:05:23;4.85;;;2.88;;
15126;SDS011;7664;52.008;4.748;2023-11-21T10:07:54;3.58;;;2.85;;
15126;SDS011;7664;52.008;4.748;2023-11-21T10:10:26;5.28;;;3.28;;
15126;SDS011;7664;52.008;4.748;2023-11-21T10:12:56;4.53;;;2.70;;
15126;SDS011;7664;52.008;4.748;2023-11-21T10:15:24;2.63;;;2.05;;
15126;SDS011;7664;52.008;4.748;2023-11-21T10:17:53;2.25;;;1.90;;
15126;SDS011;7664;52.008;4.748;2023-11-21T10:20:23;3.03;;;2.42;;
15126;SDS011;7664;52.008;4.748;2023-11-21T10:22:53;4.90;;;2.90;;
15126;SDS011;7664;52.008;4.748;2023-11-21T10:25:21;5.55;;;3.80;;
15126;SDS011;7664;52.008;4.748;2023-11-21T10:27:55;5.97;;;4.22;;
15126;SDS011;7664;52.008;4.748;2023-11-21T10:30:32;5.70;;;3.35;;
15126;SDS011;7664;52.008;4.748;2023-11-21T10:33:03;7.47;;;3.90;;
15126;SDS011;7664;52.008;4.748;2023-11-21T10:35:38;6.38;;;4.00;;
15126;SDS011;7664;52.008;4.748;2023-11-21T10:38:13;5.78;;;4.10;;
15126;SDS011;7664;52.008;4.748;2023-11-21T10:40:41;4.65;;;3.55;;
15126;SDS011;7664;52.008;4.748;2023-11-21T10:43:14;4.28;;;3.45;;
15126;SDS011;7664;52.008;4.748;2023-11-21T10:45:43;7.47;;;4.28;;
15126;SDS011;7664;52.008;4.748;2023-11-21T10:48:12;6.50;;;3.78;;
15126;SDS011;7664;52.008;4.748;2023-11-21T10:50:43;5.72;;;3.75;;
15126;SDS011;7664;52.008;4.748;2023-11-21T10:53:11;7.40;;;4.50;;
15126;SDS011;7664;52.008;4.748;2023-11-21T10:55:39;5.95;;;3.17;;
15126;SDS011;7664;52.008;4.748;2023-11-21T10:58:08;6.93;;;4.47;;
15126;SDS011;7664;52.008;4.748;2023-11-21T11:00:42;7.72;;;4.50;;
15126;SDS011;7664;52.008;4.748;2023-11-21T11:03:12;9.30;;;5.85;;
15126;SDS011;7664;52.008;4.748;2023-11-21T11:05:43;11.15;;;5.47;;
15126;SDS011;7664;52.008;4.748;2023-11-21T11:08:19;10.57;;;5.65;;
15126;SDS011;7664;52.008;4.748;2023-11-21T11:10:54;14.07;;;7.32;;
15126;SDS011;7664;52.008;4.748;2023-11-21T11:13:22;10.13;;;6.85;;
15126;SDS011;7664;52.008;4.748;2023-11-21T11:15:56;10.80;;;7.25;;
15126;SDS011;7664;52.008;4.748;2023-11-21T11:18:28;11.48;;;6.28;;
15126;SDS011;7664;52.008;4.748;2023-11-21T11:20:58;10.32;;;6.13;;
15126;SDS011;7664;52.008;4.748;2023-11-21T11:23:37;11.90;;;7.80;;
15126;SDS011;7664;52.008;4.748;2023-11-21T11:26:16;10.93;;;7.50;;
15126;SDS011;7664;52.008;4.748;2023-11-21T11:28:57;12.73;;;6.47;;
15126;SDS011;7664;52.008;4.748;2023-11-21T11:31:39;9.18;;;5.95;;
15126;SDS011;7664;52.008;4.748;2023-11-21T11:34:28;10.30;;;6.45;;
15126;SDS011;7664;52.008;4.748;2023-11-21T11:37:00;9.48;;;5.70;;
15126;SDS011;7664;52.008;4.748;2023-11-21T11:39:30;12.40;;;6.53;;
15126;SDS011;7664;52.008;4.748;2023-11-21T11:42:02;11.65;;;6.85;;
15126;SDS011;7664;52.008;4.748;2023-11-21T11:44:51;9.43;;;6.47;;
15126;SDS011;7664;52.008;4.748;2023-11-21T11:47:25;10.20;;;6.10;;
15126;SDS011;7664;52.008;4.748;2023-11-21T11:50:01;10.45;;;6.10;;
15126;SDS011;7664;52.008;4.748;2023-11-21T11:52:35;11.63;;;6.05;;
15126;SDS011;7664;52.008;4.748;2023-11-21T11:55:06;9.70;;;5.93;;
15126;SDS011;7664;52.008;4.748;2023-11-21T11:57:37;10.10;;;6.25;;
15126;SDS011;7664;52.008;4.748;2023-11-21T12:00:10;9.00;;;5.75;;
15126;SDS011;7664;52.008;4.748;2023-11-21T12:02:48;9.57;;;5.68;;
15126;SDS011;7664;52.008;4.748;2023-11-21T12:05:18;10.07;;;6.25;;
15126;SDS011;7664;52.008;4.748;2023-11-21T12:07:48;10.88;;;6.72;;
15126;SDS011;7664;52.008;4.748;2023-11-21T12:10:19;10.80;;;6.47;;
15126;SDS011;7664;52.008;4.748;2023-11-21T12:12:51;11.35;;;6.82;;
15126;SDS011;7664;52.008;4.748;2023-11-21T12:15:21;10.32;;;6.30;;
15126;SDS011;7664;52.008;4.748;2023-11-21T12:17:51;8.57;;;5.35;;
15126;SDS011;7664;52.008;4.748;2023-11-21T12:20:20;9.50;;;4.72;;
15126;SDS011;7664;52.008;4.748;2023-11-21T12:22:50;9.93;;;4.65;;
15126;SDS011;7664;52.008;4.748;2023-11-21T12:25:20;9.73;;;6.25;;
15126;SDS011;7664;52.008;4.748;2023-11-21T12:27:50;7.85;;;5.30;;
15126;SDS011;7664;52.008;4.748;2023-11-21T12:30:19;10.43;;;6.30;;
15126;SDS011;7664;52.008;4.748;2023-11-21T12:32:49;12.50;;;6.63;;
15126;SDS011;7664;52.008;4.748;2023-11-21T12:35:21;13.00;;;6.60;;
15126;SDS011;7664;52.008;4.748;2023-11-21T12:37:51;14.60;;;8.57;;
15126;SDS011;7664;52.008;4.748;2023-11-21T12:40:19;13.60;;;8.15;;
15126;SDS011;7664;52.008;4.748;2023-11-21T12:42:51;14.57;;;8.07;;
15126;SDS011;7664;52.008;4.748;2023-11-21T12:45:20;11.85;;;7.90;;
15126;SDS011;7664;52.008;4.748;2023-11-21T12:47:53;14.05;;;7.75;;
15126;SDS011;7664;52.008;4.748;2023-11-21T12:50:25;16.45;;;8.15;;
15126;SDS011;7664;52.008;4.748;2023-11-21T12:52:58;10.13;;;6.75;;
15126;SDS011;7664;52.008;4.748;2023-11-21T12:55:29;12.95;;;7.45;;
15126;SDS011;7664;52.008;4.748;2023-11-21T12:58:01;10.40;;;6.85;;
15126;SDS011;7664;52.008;4.748;2023-11-21T13:00:35;10.10;;;6.28;;
15126;SDS011;7664;52.008;4.748;2023-11-21T13:03:05;9.27;;;6.13;;
15126;SDS011;7664;52.008;4.748;2023-11-21T13:05:37;12.15;;;7.32;;
15126;SDS011;7664;52.008;4.748;2023-11-21T13:08:09;9.48;;;6.07;;
15126;SDS011;7664;52.008;4.748;2023-11-21T13:10:40;11.45;;;7.07;;
15126;SDS011;7664;52.008;4.748;2023-11-21T13:13:10;11.50;;;6.18;;
15126;SDS011;7664;52.008;4.748;2023-11-21T13:15:49;14.55;;;7.85;;
15126;SDS011;7664;52.008;4.748;2023-11-21T13:18:18;12.88;;;8.13;;
15126;SDS011;7664;52.008;4.748;2023-11-21T13:20:49;12.07;;;7.65;;
15126;SDS011;7664;52.008;4.748;2023-11-21T13:23:17;12.05;;;8.00;;
15126;SDS011;7664;52.008;4.748;2023-11-21T13:25:45;14.40;;;8.15;;
15126;SDS011;7664;52.008;4.748;2023-11-21T13:28:27;12.20;;;7.80;;
15126;SDS011;7664;52.008;4.748;2023-11-21T13:31:00;10.60;;;6.95;;
15126;SDS011;7664;52.008;4.748;2023-11-21T13:33:37;12.35;;;7.90;;
15126;SDS011;7664;52.008;4.748;2023-11-21T13:36:10;13.55;;;8.93;;
15126;SDS011;7664;52.008;4.748;2023-11-21T13:38:40;11.23;;;7.63;;
15126;SDS011;7664;52.008;4.748;2023-11-21T13:41:10;14.05;;;8.45;;
15126;SDS011;7664;52.008;4.748;2023-11-21T13:43:40;14.52;;;8.77;;
15126;SDS011;7664;52.008;4.748;2023-11-21T13:46:10;15.00;;;8.13;;
15126;SDS011;7664;52.008;4.748;2023-11-21T13:48:43;11.80;;;7.90;;
15126;SDS011;7664;52.008;4.748;2023-11-21T13:51:19;13.88;;;8.80;;
15126;SDS011;7664;52.008;4.748;2023-11-21T13:53:55;13.93;;;9.80;;
15126;SDS011;7664;52.008;4.748;2023-11-21T13:56:24;13.85;;;8.95;;
15126;SDS011;7664;52.008;4.748;2023-11-21T13:58:54;17.50;;;10.60;;
15126;SDS011;7664;52.008;4.748;2023-11-21T14:01:23;14.80;;;8.95;;
15126;SDS011;7664;52.008;4.748;2023-11-21T14:04:00;16.40;;;10.48;;
15126;SDS011;7664;52.008;4.748;2023-11-21T14:06:39;19.15;;;10.45;;
15126;SDS011;7664;52.008;4.748;2023-11-21T14:09:14;15.95;;;9.68;;
15126;SDS011;7664;52.008;4.748;2023-11-21T14:11:49;16.92;;;11.07;;
15126;SDS011;7664;52.008;4.748;2023-11-21T14:14:19;16.92;;;11.05;;
15126;SDS011;7664;52.008;4.748;2023-11-21T14:16:50;15.50;;;9.95;;
15126;SDS011;7664;52.008;4.748;2023-11-21T14:19:18;13.57;;;9.15;;
15126;SDS011;7664;52.008;4.748;2023-11-21T14:21:48;16.52;;;9.32;;
15126;SDS011;7664;52.008;4.748;2023-11-21T14:24:17;17.10;;;9.35;;
15126;SDS011;7664;52.008;4.748;2023-11-21T14:26:45;15.48;;;10.13;;
15126;SDS011;7664;52.008;4.748;2023-11-21T14:29:15;14.15;;;9.63;;
15126;SDS011;7664;52.008;4.748;2023-11-21T14:31:46;13.43;;;8.90;;
15126;SDS011;7664;52.008;4.748;2023-11-21T14:34:15;14.48;;;8.77;;
15126;SDS011;7664;52.008;4.748;2023-11-21T14:36:49;14.45;;;9.23;;
15126;SDS011;7664;52.008;4.748;2023-11-21T14:39:17;15.25;;;9.65;;
15126;SDS011;7664;52.008;4.748;2023-11-21T14:41:50;17.15;;;10.77;;
15126;SDS011;7664;52.008;4.748;2023-11-21T14:44:19;14.88;;;9.55;;
15126;SDS011;7664;52.008;4.748;2023-11-21T14:46:53;14.98;;;10.25;;
15126;SDS011;7664;52.008;4.748;2023-11-21T14:49:24;15.98;;;10.48;;
15126;SDS011;7664;52.008;4.748;2023-11-21T14:51:56;14.10;;;8.88;;
15126;SDS011;7664;52.008;4.748;2023-11-21T14:54:27;15.02;;;9.85;;
15126;SDS011;7664;52.008;4.748;2023-11-21T14:57:07;16.77;;;10.63;;
15126;SDS011;7664;52.008;4.748;2023-11-21T14:59:42;19.42;;;10.40;;
15126;SDS011;7664;52.008;4.748;2023-11-21T15:02:13;19.17;;;12.13;;
15126;SDS011;7664;52.008;4.748;2023-11-21T15:04:48;17.55;;;11.05;;
15126;SDS011;7664;52.008;4.748;2023-11-21T15:07:20;19.73;;;11.90;;
15126;SDS011;7664;52.008;4.748;2023-11-21T15:09:47;18.60;;;11.82;;
15126;SDS011;7664;52.008;4.748;2023-11-21T15:12:16;17.50;;;10.38;;